Time;durP1;ratioP1;P1;durP2;ratioP2;P2;SDS_P1;SDS_P2;PMS_P1;PMS_P2;Temp;Humidity;BMP_temperature;BMP_pressure;BME280_temperature;BME280_humidity;BME280_pressure;Samples;Min_cycle;Max_cycle;Signal;HPM_P1;HPM_P2
2023/03/08 00:01:01;;;;;;;7.22;4.55;;;-1.00;99.90;;;;;;4980084;28;20084;-55
2023/03/08 00:03:26;;;;;;;6.50;5.13;;;-1.00;99.90;;;;;;4982736;28;20077;-55
2023/03/08 00:05:52;;;;;;;5.55;4.95;;;-1.00;99.90;;;;;;4980508;28;20126;-56
2023/03/08 00:08:18;;;;;;;10.68;5.07;;;-1.10;99.90;;;;;;4980719;28;20148;-57
2023/03/08 00:10:44;;;;;;;7.53;5.13;;;-1.00;99.90;;;;;;4980913;28;20480;-57
2023/03/08 00:13:10;;;;;;;9.63;5.68;;;-1.00;99.90;;;;;;4981023;28;20514;-57
2023/03/08 00:15:37;;;;;;;6.28;4.60;;;-1.00;99.90;;;;;;4981883;28;20042;-57
2023/03/08 00:18:03;;;;;;;5.57;5.07;;;-1.00;99.90;;;;;;4984179;28;20046;-57
2023/03/08 00:20:29;;;;;;;6.38;5.13;;;-1.00;99.90;;;;;;4980232;28;20042;-56
2023/03/08 00:22:55;;;;;;;6.45;4.75;;;-1.00;99.90;;;;;;4980246;28;20096;-57
2023/03/08 00:25:20;;;;;;;6.50;5.05;;;-1.00;99.90;;;;;;4982132;28;20073;-55
2023/03/08 00:27:46;;;;;;;8.85;5.53;;;-1.00;99.90;;;;;;4990841;28;20125;-56
2023/03/08 00:30:12;;;;;;;6.57;4.78;;;-1.00;99.90;;;;;;5002657;28;20503;-58
2023/03/08 00:32:38;;;;;;;5.75;5.10;;;-1.00;99.90;;;;;;4979650;28;20473;-57
2023/03/08 00:35:04;;;;;;;8.50;5.20;;;-1.00;99.90;;;;;;4986364;28;20038;-58
2023/03/08 00:37:29;;;;;;;8.63;5.35;;;-1.00;99.90;;;;;;4989168;28;20042;-56
2023/03/08 00:39:55;;;;;;;6.90;5.32;;;-1.10;99.90;;;;;;4991148;28;20043;-55
2023/03/08 00:42:21;;;;;;;6.55;5.32;;;-1.10;99.90;;;;;;4989791;28;20167;-57
2023/03/08 00:44:47;;;;;;;6.65;5.25;;;-1.10;99.90;;;;;;4980917;28;20046;-56
2023/03/08 00:47:13;;;;;;;7.18;5.53;;;-1.20;99.90;;;;;;4990895;28;20046;-56
2023/03/08 00:49:38;;;;;;;8.95;5.90;;;-1.10;99.90;;;;;;4991194;28;20554;-56
2023/03/08 00:52:05;;;;;;;9.07;6.07;;;-1.20;99.90;;;;;;4977612;28;20171;-58
2023/03/08 00:54:30;;;;;;;8.57;5.78;;;-1.20;99.90;;;;;;4980863;28;20046;-57
2023/03/08 00:56:56;;;;;;;9.02;6.28;;;-1.20;99.90;;;;;;4980792;28;20052;-53
2023/03/08 00:59:21;;;;;;;10.35;6.15;;;-1.20;99.90;;;;;;4978270;28;20046;-58
2023/03/08 01:01:47;;;;;;;7.35;6.22;;;-1.20;99.90;;;;;;4980165;28;20078;-54
2023/03/08 01:04:13;;;;;;;7.13;6.18;;;-1.10;99.90;;;;;;4980078;28;20203;-57
2023/03/08 01:06:39;;;;;;;6.18;5.57;;;-1.20;99.90;;;;;;4981824;28;20054;-57
2023/03/08 01:09:05;;;;;;;10.98;7.30;;;-1.20;99.90;;;;;;4980064;28;20099;-56
2023/03/08 01:11:34;;;;;;;11.70;6.80;;;-1.20;99.90;;;;;;4979716;28;20042;-56
2023/03/08 01:13:59;;;;;;;9.85;5.97;;;-1.30;99.90;;;;;;4963519;28;20073;-53
2023/03/08 01:16:29;;;;;;;10.35;6.47;;;-1.30;99.90;;;;;;4982134;28;20476;-55
2023/03/08 01:18:55;;;;;;;9.25;7.03;;;-1.30;99.90;;;;;;4982786;28;20408;-57
2023/03/08 01:21:22;;;;;;;9.57;7.40;;;-1.20;99.90;;;;;;4988288;28;20042;-58
2023/03/08 01:23:49;;;;;;;10.45;7.55;;;-1.30;99.90;;;;;;4987689;28;20043;-57
2023/03/08 01:26:17;;;;;;;13.35;8.55;;;-1.20;99.90;;;;;;4987562;28;20070;-58
2023/03/08 01:28:43;;;;;;;10.25;8.52;;;-1.20;99.90;;;;;;4990336;28;20042;-57
2023/03/08 01:31:14;;;;;;;9.90;7.97;;;-1.20;99.90;;;;;;4974546;28;20572;-58
2023/03/08 01:33:41;;;;;;;10.63;8.30;;;-1.20;99.90;;;;;;4971515;28;20054;-57
2023/03/08 01:36:09;;;;;;;11.45;8.55;;;-1.20;99.90;;;;;;4975708;28;20038;-59
2023/03/08 01:38:35;;;;;;;12.90;8.82;;;-1.20;99.90;;;;;;4980536;28;20103;-58
2023/03/08 01:41:03;;;;;;;12.82;8.95;;;-1.20;99.90;;;;;;4980775;28;20042;-57
2023/03/08 01:43:31;;;;;;;16.70;9.50;;;-1.20;99.90;;;;;;4980538;28;20050;-58
2023/03/08 01:46:05;;;;;;;13.48;9.75;;;-1.20;99.90;;;;;;4980115;28;20316;-57
2023/03/08 01:48:39;;;;;;;17.20;10.07;;;-1.30;99.90;;;;;;4980569;28;20050;-58
2023/03/08 01:51:09;;;;;;;14.00;9.73;;;-1.30;99.90;;;;;;4980862;28;20049;-58
2023/03/08 01:53:37;;;;;;;12.75;10.43;;;-1.20;99.90;;;;;;4987738;28;20104;-57
2023/03/08 01:56:07;;;;;;;13.68;9.65;;;-1.30;99.90;;;;;;4981601;28;21656;-55
2023/03/08 01:58:34;;;;;;;17.80;11.30;;;-1.30;99.90;;;;;;4978435;28;20120;-58
2023/03/08 02:01:00;;;;;;;14.30;10.65;;;-1.30;99.90;;;;;;4980213;28;20444;-58
2023/03/08 02:03:25;;;;;;;19.48;11.57;;;-1.30;99.90;;;;;;4979773;28;20141;-57
2023/03/08 02:05:51;;;;;;;14.02;10.55;;;-1.30;99.90;;;;;;4979735;28;20121;-57
2023/03/08 02:08:17;;;;;;;15.43;12.10;;;-1.40;99.90;;;;;;4982435;28;20467;-54
2023/03/08 02:10:43;;;;;;;16.02;11.07;;;-1.40;99.90;;;;;;4984519;28;20584;-58
2023/03/08 02:13:09;;;;;;;18.08;11.90;;;-1.40;99.90;;;;;;4984259;28;20092;-57
2023/03/08 02:15:35;;;;;;;17.20;12.13;;;-1.50;99.90;;;;;;4983300;28;20058;-57
2023/03/08 02:18:00;;;;;;;14.77;11.82;;;-1.50;99.90;;;;;;4982665;28;20053;-55
2023/03/08 02:20:38;;;;;;;18.10;12.68;;;-1.40;99.90;;;;;;4983104;28;20118;-57
2023/03/08 02:23:12;;;;;;;18.20;12.80;;;-1.50;99.90;;;;;;4980374;28;20096;-56
2023/03/08 02:25:38;;;;;;;19.23;12.48;;;-1.50;99.90;;;;;;5005917;28;20038;-58
2023/03/08 02:28:04;;;;;;;16.15;12.65;;;-1.50;99.90;;;;;;4988195;28;20046;-58
2023/03/08 02:30:33;;;;;;;15.98;12.57;;;-1.50;99.90;;;;;;4994204;28;20034;-54
2023/03/08 02:32:59;;;;;;;17.10;12.70;;;-1.50;99.90;;;;;;4982220;28;20039;-56
2023/03/08 02:35:24;;;;;;;17.67;12.80;;;-1.50;99.90;;;;;;4983444;28;20380;-58
2023/03/08 02:37:50;;;;;;;19.17;13.68;;;-1.50;99.90;;;;;;4983468;28;20459;-57
2023/03/08 02:40:16;;;;;;;16.85;12.70;;;-1.50;99.90;;;;;;4993166;28;20046;-57
2023/03/08 02:42:41;;;;;;;19.42;13.63;;;-1.50;99.90;;;;;;5012670;28;20064;-53
2023/03/08 02:45:07;;;;;;;17.92;14.00;;;-1.50;99.90;;;;;;4992457;28;20484;-56
2023/03/08 02:47:33;;;;;;;15.88;12.60;;;-1.50;99.90;;;;;;4993397;28;20125;-56
2023/03/08 02:49:59;;;;;;;19.30;13.23;;;-1.50;99.90;;;;;;4982259;28;20142;-56
2023/03/08 02:52:25;;;;;;;18.23;13.57;;;-1.50;99.90;;;;;;4973502;28;20487;-58
2023/03/08 02:54:52;;;;;;;16.35;12.68;;;-1.50;99.90;;;;;;4983944;28;20070;-57
2023/03/08 02:57:18;;;;;;;18.07;12.63;;;-1.50;99.90;;;;;;4982425;28;20061;-55
2023/03/08 02:59:44;;;;;;;16.40;11.32;;;-1.40;99.90;;;;;;4983243;28;20500;-57
2023/03/08 03:02:10;;;;;;;15.82;12.40;;;-1.40;99.90;;;;;;4982026;28;20053;-56
2023/03/08 03:04:35;;;;;;;17.35;12.63;;;-1.50;99.90;;;;;;4982680;28;20447;-56
2023/03/08 03:07:01;;;;;;;16.75;11.57;;;-1.50;99.90;;;;;;4981123;28;20081;-53
2023/03/08 03:09:27;;;;;;;16.27;11.65;;;-1.50;99.90;;;;;;4982065;28;20480;-56
2023/03/08 03:11:53;;;;;;;19.13;12.27;;;-1.50;99.90;;;;;;4982571;28;20117;-54
2023/03/08 03:14:18;;;;;;;14.70;11.38;;;-1.50;99.90;;;;;;4982495;28;20046;-57
2023/03/08 03:16:44;;;;;;;13.70;11.48;;;-1.40;99.90;;;;;;4982738;28;20077;-53
2023/03/08 03:19:10;;;;;;;15.32;10.88;;;-1.50;99.90;;;;;;4982380;28;20042;-58
2023/03/08 03:21:38;;;;;;;14.48;10.43;;;-1.40;99.90;;;;;;4982780;28;20121;-55
2023/03/08 03:24:03;;;;;;;16.77;11.20;;;-1.40;99.90;;;;;;4981599;28;20400;-57
2023/03/08 03:26:29;;;;;;;15.65;10.48;;;-1.50;99.90;;;;;;4982791;28;20044;-58
2023/03/08 03:28:56;;;;;;;15.30;10.80;;;-1.50;99.90;;;;;;4982086;28;20030;-57
2023/03/08 03:31:22;;;;;;;13.77;10.88;;;-1.50;99.90;;;;;;4966351;28;20139;-58
2023/03/08 03:33:49;;;;;;;14.10;10.38;;;-1.50;99.90;;;;;;4981539;28;20079;-56
2023/03/08 03:36:17;;;;;;;12.60;10.07;;;-1.60;99.90;;;;;;4981540;28;20042;-53
2023/03/08 03:38:43;;;;;;;15.90;9.85;;;-1.50;99.90;;;;;;4980814;28;20034;-54
2023/03/08 03:41:15;;;;;;;10.75;9.57;;;-1.50;99.90;;;;;;4981734;28;20406;-57
2023/03/08 03:43:41;;;;;;;13.77;9.85;;;-1.60;99.90;;;;;;4984197;28;20380;-57
2023/03/08 03:46:10;;;;;;;14.18;9.95;;;-1.60;99.90;;;;;;4981736;28;20069;-57
2023/03/08 03:48:36;;;;;;;13.55;10.93;;;-1.60;99.90;;;;;;4980839;28;20058;-59
2023/03/08 03:51:09;;;;;;;11.52;9.02;;;-1.60;99.90;;;;;;4965244;28;20085;-57
2023/03/08 03:53:35;;;;;;;13.05;9.60;;;-1.70;99.90;;;;;;4981355;28;20051;-57
2023/03/08 03:56:04;;;;;;;14.30;10.27;;;-1.60;99.90;;;;;;4964410;28;20045;-59
2023/03/08 03:58:29;;;;;;;16.42;10.10;;;-1.60;99.90;;;;;;4980466;28;20040;-58
2023/03/08 04:00:55;;;;;;;14.13;9.68;;;-1.60;99.90;;;;;;4964147;28;21332;-56
2023/03/08 04:03:21;;;;;;;10.55;9.10;;;-1.60;99.90;;;;;;4981406;28;20057;-58
2023/03/08 04:05:46;;;;;;;15.88;9.98;;;-1.60;99.90;;;;;;4981998;28;20099;-57
2023/03/08 04:08:12;;;;;;;15.18;9.25;;;-1.60;99.90;;;;;;4983013;28;20040;-54
2023/03/08 04:10:38;;;;;;;11.82;8.73;;;-1.60;99.90;;;;;;4981131;28;20040;-54
2023/03/08 04:13:03;;;;;;;11.93;9.02;;;-1.60;99.90;;;;;;4978855;28;20065;-58
2023/03/08 04:15:29;;;;;;;11.52;8.25;;;-1.50;99.90;;;;;;4980085;28;20113;-54
2023/03/08 04:17:55;;;;;;;13.65;8.70;;;-1.50;99.90;;;;;;4981090;28;20056;-57
2023/03/08 04:20:21;;;;;;;12.27;9.27;;;-1.50;99.90;;;;;;4981407;28;20053;-55
2023/03/08 04:22:46;;;;;;;12.02;9.05;;;-1.50;99.90;;;;;;4980394;28;20039;-57
2023/03/08 04:25:12;;;;;;;10.55;8.88;;;-1.60;99.90;;;;;;4966162;28;20137;-55
2023/03/08 04:27:37;;;;;;;14.32;9.65;;;-1.60;99.90;;;;;;5000883;28;20037;-53
2023/03/08 04:30:04;;;;;;;10.93;8.82;;;-1.60;99.90;;;;;;5009964;28;20042;-55
2023/03/08 04:32:32;;;;;;;12.20;9.55;;;-1.60;99.90;;;;;;4979356;28;20116;-57
2023/03/08 04:34:58;;;;;;;13.23;9.05;;;-1.60;99.90;;;;;;4972528;28;20057;-56
2023/03/08 04:37:24;;;;;;;12.48;9.10;;;-1.60;99.90;;;;;;4973381;28;20035;-57
2023/03/08 04:39:50;;;;;;;10.40;9.02;;;-1.60;99.90;;;;;;4978746;28;20035;-53
2023/03/08 04:42:15;;;;;;;12.10;8.32;;;-1.70;99.90;;;;;;4987799;28;20164;-55
2023/03/08 04:44:41;;;;;;;15.15;9.23;;;-1.70;99.90;;;;;;4987895;28;20205;-56
2023/03/08 04:47:07;;;;;;;11.32;9.15;;;-1.70;99.90;;;;;;4992300;28;20064;-56
2023/03/08 04:49:32;;;;;;;11.35;8.23;;;-1.60;99.90;;;;;;4981122;28;20057;-58
2023/03/08 04:51:58;;;;;;;9.25;8.13;;;-1.70;99.90;;;;;;4966831;28;20038;-57
2023/03/08 04:54:24;;;;;;;11.43;9.00;;;-1.70;99.90;;;;;;4985862;28;20077;-56
2023/03/08 04:56:49;;;;;;;15.15;8.35;;;-1.60;99.90;;;;;;4983927;28;20308;-57
2023/03/08 04:59:15;;;;;;;13.57;8.45;;;-1.60;99.90;;;;;;4989461;28;20060;-57
2023/03/08 05:01:41;;;;;;;11.32;8.93;;;-1.70;99.90;;;;;;4988706;28;20624;-56
2023/03/08 05:04:10;;;;;;;11.88;8.15;;;-1.60;99.90;;;;;;4983917;28;20046;-58
2023/03/08 05:06:37;;;;;;;9.57;8.38;;;-1.60;99.90;;;;;;4981564;28;20050;-58
2023/03/08 05:09:02;;;;;;;13.35;9.30;;;-1.60;99.90;;;;;;4982926;28;20258;-56
2023/03/08 05:11:28;;;;;;;9.60;8.55;;;-1.50;99.90;;;;;;4986385;28;20142;-56
2023/03/08 05:13:56;;;;;;;12.82;9.18;;;-1.60;99.90;;;;;;4984231;28;20353;-56
2023/03/08 05:16:22;;;;;;;;;;;-1.50;99.90;;;;;;4969659;28;20080;-53
2023/03/08 05:18:47;;;;;;;11.07;9.48;;;-1.50;99.90;;;;;;4979898;28;19921;-54
2023/03/08 05:21:19;;;;;;;15.27;10.60;;;-1.50;99.90;;;;;;4984566;28;20065;-53
2023/03/08 05:23:45;;;;;;;15.45;11.00;;;-1.50;99.90;;;;;;4985065;28;20046;-53
2023/03/08 05:26:14;;;;;;;18.55;11.07;;;-1.50;99.90;;;;;;4986098;28;20113;-55
2023/03/08 05:28:40;;;;;;;15.30;11.82;;;-1.50;99.90;;;;;;4985080;28;20042;-53
2023/03/08 05:31:18;;;;;;;13.38;10.93;;;-1.60;99.90;;;;;;4981758;28;20054;-57
2023/03/08 05:33:45;;;;;;;12.63;10.73;;;-1.60;99.90;;;;;;4980896;28;20491;-53
2023/03/08 05:36:12;;;;;;;13.63;11.48;;;-1.60;99.90;;;;;;4980238;28;20046;-57
2023/03/08 05:38:38;;;;;;;17.75;12.50;;;-1.60;99.90;;;;;;4979658;28;20038;-57
2023/03/08 05:41:07;;;;;;;15.32;12.70;;;-1.60;99.90;;;;;;4983037;28;20068;-55
2023/03/08 05:43:33;;;;;;;22.40;13.25;;;-1.70;99.90;;;;;;4981854;28;20042;-56
2023/03/08 05:46:02;;;;;;;17.50;13.75;;;-1.70;99.90;;;;;;4983391;28;20053;-56
2023/03/08 05:48:29;;;;;;;21.23;16.45;;;-1.60;99.90;;;;;;4980745;28;20091;-56
2023/03/08 05:50:55;;;;;;;25.70;18.38;;;-1.60;99.90;;;;;;4963949;28;20042;-57
2023/03/08 05:53:21;;;;;;;28.30;18.63;;;-1.60;99.90;;;;;;4981278;28;20054;-54
2023/03/08 05:55:47;;;;;;;25.33;17.40;;;-1.60;99.90;;;;;;4983845;28;20046;-54
2023/03/08 05:58:13;;;;;;;26.23;18.58;;;-1.50;99.90;;;;;;4984740;28;20035;-55
2023/03/08 06:00:39;;;;;;;29.20;20.60;;;-1.50;99.90;;;;;;4985769;28;20503;-57
2023/03/08 06:03:04;;;;;;;27.10;20.88;;;-1.60;99.90;;;;;;4985919;28;20360;-54
2023/03/08 06:05:31;;;;;;;26.80;20.33;;;-1.60;99.90;;;;;;4983286;28;20046;-58
2023/03/08 06:07:57;;;;;;;26.17;20.23;;;-1.50;99.90;;;;;;4981972;28;20047;-59
2023/03/08 06:10:23;;;;;;;27.85;21.83;;;-1.60;99.90;;;;;;4986407;28;20042;-58
2023/03/08 06:12:48;;;;;;;27.35;20.58;;;-1.60;99.90;;;;;;4985239;28;20462;-57
2023/03/08 06:15:14;;;;;;;27.13;19.08;;;-1.50;99.90;;;;;;4986935;28;20123;-58
2023/03/08 06:17:41;;;;;;;28.63;20.90;;;-1.60;99.90;;;;;;4981563;28;20093;-58
2023/03/08 06:20:07;;;;;;;32.63;21.73;;;-1.50;99.90;;;;;;4980236;28;20318;-59
2023/03/08 06:22:33;;;;;;;27.80;20.70;;;-1.60;99.90;;;;;;4982590;28;20053;-57
2023/03/08 06:24:59;;;;;;;23.40;19.00;;;-1.60;99.90;;;;;;4997834;28;20046;-58
2023/03/08 06:27:25;;;;;;;27.58;20.48;;;-1.60;99.90;;;;;;4983632;28;20148;-56
2023/03/08 06:29:50;;;;;;;30.65;22.73;;;-1.60;99.90;;;;;;4984182;28;20045;-58
2023/03/08 06:32:16;;;;;;;29.98;21.20;;;-1.50;99.90;;;;;;4984479;28;20060;-58
2023/03/08 06:34:42;;;;;;;27.02;20.55;;;-1.50;99.90;;;;;;4984678;28;20125;-54
2023/03/08 06:37:08;;;;;;;27.55;20.17;;;-1.50;99.90;;;;;;4985952;28;20141;-53
2023/03/08 06:39:33;;;;;;;27.45;20.02;;;-1.50;99.90;;;;;;4983172;28;20054;-57
2023/03/08 06:42:02;;;;;;;24.88;19.52;;;-1.40;99.90;;;;;;4983325;28;20039;-58
2023/03/08 06:44:29;;;;;;;51.10;23.85;;;-1.40;99.90;;;;;;4980602;28;20365;-57
2023/03/08 06:46:55;;;;;;;104.40;22.80;;;-1.40;99.90;;;;;;4983122;28;20046;-55
2023/03/08 06:49:21;;;;;;;96.75;25.60;;;-1.40;99.90;;;;;;4966143;28;20454;-58
2023/03/08 06:51:47;;;;;;;109.22;24.42;;;-1.40;99.90;;;;;;4984204;28;20038;-56
2023/03/08 06:54:16;;;;;;;126.25;24.90;;;-1.40;99.90;;;;;;4983410;28;20045;-55
2023/03/08 06:56:43;;;;;;;142.75;24.75;;;-1.40;99.90;;;;;;4982828;28;20078;-59
2023/03/08 06:59:10;;;;;;;67.97;25.52;;;-1.40;99.90;;;;;;4980466;28;20133;-58
2023/03/08 07:01:35;;;;;;;66.13;23.52;;;-1.30;99.90;;;;;;4977444;28;20172;-58
2023/03/08 07:04:01;;;;;;;75.78;25.15;;;-1.30;99.90;;;;;;4978615;28;20094;-57
2023/03/08 07:06:27;;;;;;;66.80;24.58;;;-1.30;99.90;;;;;;4979542;28;20125;-56
2023/03/08 07:08:53;;;;;;;77.63;25.38;;;-1.30;99.90;;;;;;4981488;28;20046;-54
2023/03/08 07:11:18;;;;;;;125.43;26.45;;;-1.20;99.90;;;;;;4980584;28;20560;-55
2023/03/08 07:13:44;;;;;;;58.10;24.58;;;-1.20;99.90;;;;;;4980358;28;20133;-55
2023/03/08 07:16:11;;;;;;;92.95;24.80;;;-1.20;99.90;;;;;;4963998;28;20043;-57
2023/03/08 07:18:37;;;;;;;54.67;23.83;;;-1.10;99.90;;;;;;4981775;28;20035;-57
2023/03/08 07:21:04;;;;;;;114.53;26.90;;;-1.10;99.90;;;;;;4982422;28;20057;-58
2023/03/08 07:23:29;;;;;;;112.75;25.52;;;-1.10;99.90;;;;;;4981334;28;20039;-57
2023/03/08 07:25:55;;;;;;;51.67;25.20;;;-1.20;99.90;;;;;;4982281;28;20075;-58
2023/03/08 07:28:21;;;;;;;75.88;25.67;;;-1.10;99.90;;;;;;4981490;28;20107;-58
2023/03/08 07:30:48;;;;;;;108.75;26.58;;;-1.20;99.90;;;;;;4982059;28;20069;-58
2023/03/08 07:33:14;;;;;;;170.77;27.25;;;-1.10;99.90;;;;;;4982501;28;20042;-58
2023/03/08 07:35:39;;;;;;;66.25;26.42;;;-1.10;99.90;;;;;;4955346;28;20035;-58
2023/03/08 07:38:05;;;;;;;70.00;24.50;;;-1.00;99.90;;;;;;4979047;28;20066;-58
2023/03/08 07:40:31;;;;;;;55.20;25.45;;;-1.00;99.90;;;;;;4985761;28;20433;-58
2023/03/08 07:42:57;;;;;;;77.10;26.60;;;-0.90;99.90;;;;;;4985145;28;20049;-58
2023/03/08 07:45:23;;;;;;;65.32;27.60;;;-0.80;99.90;;;;;;4987439;28;20046;-58
2023/03/08 07:47:51;;;;;;;71.25;25.23;;;-0.80;99.90;;;;;;4987812;28;20133;-57
2023/03/08 07:50:17;;;;;;;64.85;28.33;;;-0.70;99.90;;;;;;4986559;28;20053;-58
2023/03/08 07:52:43;;;;;;;116.25;27.80;;;-0.60;99.90;;;;;;4986148;28;20115;-57
2023/03/08 07:55:10;;;;;;;136.48;27.45;;;-0.60;99.90;;;;;;4989396;28;20095;-58
2023/03/08 07:57:35;;;;;;;81.82;23.75;;;-0.60;99.90;;;;;;4969413;28;20123;-57
2023/03/08 08:00:06;;;;;;;55.38;23.98;;;-0.40;99.90;;;;;;4982941;28;20097;-57
2023/03/08 08:02:32;;;;;;;39.92;23.13;;;-0.30;99.90;;;;;;4982500;28;20057;-56
2023/03/08 08:04:58;;;;;;;46.60;22.88;;;-0.20;99.90;;;;;;4984907;28;20049;-57
2023/03/08 08:07:24;;;;;;;45.20;23.60;;;-0.20;99.90;;;;;;4978007;28;20042;-57
2023/03/08 08:09:49;;;;;;;37.90;22.73;;;-0.20;99.90;;;;;;4983666;28;20043;-58
2023/03/08 08:12:15;;;;;;;32.97;21.50;;;-0.10;99.90;;;;;;4979633;28;20546;-58
2023/03/08 08:14:41;;;;;;;40.20;23.00;;;-0.10;99.90;;;;;;4986594;28;20390;-58
2023/03/08 08:17:06;;;;;;;33.72;22.08;;;-0.10;99.90;;;;;;4984775;28;20041;-57
2023/03/08 08:19:32;;;;;;;72.57;21.83;;;-0.10;99.90;;;;;;4985232;28;20039;-56
2023/03/08 08:21:59;;;;;;;38.22;21.70;;;-0.10;99.90;;;;;;4982298;28;20411;-57
2023/03/08 08:24:25;;;;;;;44.30;22.35;;;-0.10;99.90;;;;;;4986372;28;20042;-58
2023/03/08 08:26:50;;;;;;;35.00;21.83;;;-0.10;99.90;;;;;;4985735;28;20051;-57
2023/03/08 08:29:16;;;;;;;33.00;22.35;;;-0.10;99.90;;;;;;4982946;28;20061;-53
2023/03/08 08:31:42;;;;;;;40.70;20.83;;;-0.10;99.90;;;;;;4965572;28;20035;-55
2023/03/08 08:34:08;;;;;;;33.60;22.73;;;-0.20;99.90;;;;;;4960938;28;20046;-57
2023/03/08 08:36:33;;;;;;;41.00;23.92;;;-0.10;99.90;;;;;;4981285;28;20188;-57
2023/03/08 08:38:59;;;;;;;38.38;22.30;;;0.00;99.90;;;;;;4980910;28;20051;-58
2023/03/08 08:41:26;;;;;;;44.22;24.05;;;-0.10;99.90;;;;;;4984170;28;20044;-56
2023/03/08 08:43:55;;;;;;;75.90;24.33;;;-0.10;99.90;;;;;;4982720;28;20046;-57
2023/03/08 08:46:21;;;;;;;47.75;26.92;;;-0.20;99.90;;;;;;4982516;28;20373;-58
2023/03/08 08:48:46;;;;;;;42.88;23.48;;;0.00;99.90;;;;;;4983099;28;20038;-55
2023/03/08 08:51:13;;;;;;;51.25;26.77;;;-0.10;99.90;;;;;;4982707;28;20606;-59
2023/03/08 08:53:39;;;;;;;52.53;27.10;;;0.00;99.90;;;;;;4983324;28;20109;-57
2023/03/08 08:56:21;;;;;;;46.13;23.33;;;0.10;99.90;;;;;;4983689;28;20121;-56
2023/03/08 08:58:47;;;;;;;40.00;22.35;;;0.10;99.90;;;;;;4978937;28;20129;-56
2023/03/08 09:01:16;;;;;;;41.92;21.80;;;0.20;99.90;;;;;;4969185;28;20133;-57
2023/03/08 09:03:42;;;;;;;35.35;22.40;;;0.20;99.90;;;;;;4982847;28;20066;-58
2023/03/08 09:06:08;;;;;;;40.63;22.15;;;0.40;99.90;;;;;;4988669;28;20078;-58
2023/03/08 09:08:34;;;;;;;37.80;20.88;;;0.40;99.90;;;;;;4979148;28;20134;-57
2023/03/08 09:11:08;;;;;;;38.83;21.67;;;0.50;99.90;;;;;;4979691;28;20065;-58
2023/03/08 09:13:37;;;;;;;48.63;17.83;;;0.50;99.90;;;;;;4981462;28;20045;-57
2023/03/08 09:16:03;;;;;;;47.25;21.10;;;0.60;99.90;;;;;;4985345;28;20053;-58
2023/03/08 09:18:28;;;;;;;38.35;20.75;;;0.60;99.90;;;;;;4980158;28;21673;-58
2023/03/08 09:20:54;;;;;;;38.80;21.80;;;0.80;99.90;;;;;;4980921;28;20039;-58
2023/03/08 09:23:20;;;;;;;39.00;18.33;;;0.70;99.90;;;;;;4981962;28;20425;-58
2023/03/08 09:25:55;;;;;;;31.02;19.40;;;0.70;99.90;;;;;;4978144;28;20046;-58
2023/03/08 09:28:20;;;;;;;36.33;20.60;;;0.60;99.90;;;;;;4964009;28;20048;-59
2023/03/08 09:30:46;;;;;;;32.08;17.98;;;0.70;99.90;;;;;;4984128;28;20034;-56
2023/03/08 09:33:11;;;;;;;30.77;18.83;;;0.80;99.90;;;;;;4984653;28;20042;-58
2023/03/08 09:35:37;;;;;;;31.70;18.25;;;0.80;99.90;;;;;;4981801;28;20053;-57
2023/03/08 09:38:04;;;;;;;37.22;21.65;;;0.80;99.90;;;;;;4976854;28;20547;-59
2023/03/08 09:40:38;;;;;;;37.47;22.17;;;0.80;99.90;;;;;;4963499;28;20253;-57
2023/03/08 09:43:05;;;;;;;34.55;20.33;;;0.90;99.90;;;;;;4974751;28;20152;-57
2023/03/08 09:45:32;;;;;;;33.45;21.10;;;1.00;99.90;;;;;;4995342;28;20039;-57
2023/03/08 09:48:03;;;;;;;33.03;20.23;;;1.00;99.90;;;;;;4980731;28;20057;-56
2023/03/08 09:50:44;;;;;;;32.50;20.13;;;1.00;99.90;;;;;;4979070;28;20053;-57
2023/03/08 09:53:30;;;;;;;29.77;19.85;;;1.10;99.90;;;;;;4982830;28;20042;-58
2023/03/08 09:56:04;;;;;;;28.23;18.15;;;1.10;99.90;;;;;;4984366;28;20046;-57
2023/03/08 09:58:32;;;;;;;29.20;18.98;;;1.10;99.90;;;;;;4983543;28;20078;-57
2023/03/08 10:01:16;;;;;;;35.60;21.02;;;1.30;99.90;;;;;;4973206;28;20061;-53
2023/03/08 10:03:47;;;;;;;33.35;20.50;;;1.20;99.90;;;;;;4993607;28;20036;-53
2023/03/08 10:06:29;;;;;;;31.80;20.10;;;1.20;99.90;;;;;;4977707;28;20488;-57
2023/03/08 10:09:15;;;;;;;35.88;20.48;;;1.40;99.90;;;;;;4989704;28;20049;-58
2023/03/08 10:11:57;;;;;;;30.48;19.00;;;1.40;99.90;;;;;;4982670;28;20041;-59
2023/03/08 10:14:31;;;;;;;30.33;17.95;;;1.50;99.90;;;;;;4989451;28;20099;-58
2023/03/08 10:17:03;;;;;;;27.58;16.60;;;1.50;99.90;;;;;;4983985;28;20786;-58
2023/03/08 10:19:45;;;;;;;26.52;17.48;;;1.70;99.90;;;;;;4983327;28;20057;-58
2023/03/08 10:22:29;;;;;;;24.85;17.15;;;1.80;99.90;;;;;;4984331;28;20095;-58
2023/03/08 10:25:17;;;;;;;23.27;15.50;;;2.00;99.90;;;;;;4965919;28;20053;-58
2023/03/08 10:27:47;;;;;;;23.20;14.70;;;2.00;99.90;;;;;;4981511;28;20126;-58
2023/03/08 10:30:15;;;;;;;25.00;16.27;;;2.10;99.90;;;;;;4983212;28;20053;-58
2023/03/08 10:32:43;;;;;;;23.05;15.50;;;2.10;99.90;;;;;;4991609;28;20386;-55
2023/03/08 10:35:09;;;;;;;24.87;16.60;;;2.10;99.90;;;;;;4991581;28;20061;-58
2023/03/08 10:37:35;;;;;;;21.50;14.95;;;2.10;99.90;;;;;;4991878;28;20039;-57
2023/03/08 10:40:05;;;;;;;23.73;16.80;;;2.20;99.90;;;;;;4988916;28;20121;-57
2023/03/08 10:42:32;;;;;;;24.08;16.70;;;2.30;99.90;;;;;;4991872;28;20050;-58
2023/03/08 10:45:01;;;;;;;24.67;17.75;;;2.50;99.90;;;;;;4991566;28;20096;-58
2023/03/08 10:47:33;;;;;;;25.13;19.45;;;2.60;99.90;;;;;;4991315;28;20091;-56
2023/03/08 10:50:19;;;;;;;29.17;19.77;;;2.80;99.90;;;;;;4990765;28;20082;-57
2023/03/08 10:52:47;;;;;;;33.92;20.10;;;2.80;99.90;;;;;;4992459;28;20045;-58
2023/03/08 10:55:14;;;;;;;34.70;23.80;;;2.90;99.90;;;;;;4990387;28;20038;-56
2023/03/08 10:57:44;;;;;;;35.30;21.55;;;2.80;99.90;;;;;;4992550;28;20047;-58
2023/03/08 11:00:19;;;;;;;30.25;21.20;;;2.80;99.90;;;;;;4993207;28;20057;-60
2023/03/08 11:02:47;;;;;;;31.42;21.25;;;2.80;99.90;;;;;;5012083;28;20048;-58
2023/03/08 11:05:27;;;;;;;46.88;27.98;;;2.90;99.90;;;;;;5004326;28;20039;-59
2023/03/08 11:07:57;;;;;;;61.17;37.30;;;2.70;99.90;;;;;;4991335;28;20487;-58
2023/03/08 11:10:28;;;;;;;61.17;36.85;;;2.80;99.90;;;;;;4991143;28;20072;-57
2023/03/08 11:13:15;;;;;;;51.55;31.42;;;2.80;99.90;;;;;;4976366;28;20092;-58
2023/03/08 11:15:46;;;;;;;47.53;31.10;;;2.70;99.90;;;;;;4986090;28;20384;-54
2023/03/08 11:18:37;;;;;;;43.63;28.05;;;2.60;99.90;;;;;;4982631;28;20042;-58
2023/03/08 11:21:13;;;;;;;39.72;25.52;;;2.50;99.90;;;;;;4983609;28;20099;-58
2023/03/08 11:23:51;;;;;;;34.65;21.30;;;2.80;99.90;;;;;;4985999;28;20535;-58
2023/03/08 11:26:39;;;;;;;36.17;24.45;;;2.80;99.90;;;;;;4987023;28;20038;-59
2023/03/08 11:29:13;;;;;;;35.97;22.75;;;2.70;99.90;;;;;;4987633;28;20080;-58
2023/03/08 11:32:01;;;;;;;29.27;19.80;;;2.80;99.90;;;;;;4993080;28;20503;-55
2023/03/08 11:34:38;;;;;;;26.77;18.63;;;3.00;99.90;;;;;;4989401;28;20107;-55
2023/03/08 11:37:46;;;;;;;27.38;18.52;;;3.00;99.90;;;;;;4987449;28;20041;-59
2023/03/08 11:40:46;;;;;;;28.95;17.88;;;3.10;99.90;;;;;;4985581;28;20051;-55
2023/03/08 11:43:22;;;;;;;29.58;19.05;;;3.00;99.90;;;;;;4991083;28;20046;-57
2023/03/08 11:46:11;;;;;;;31.08;19.38;;;3.20;99.90;;;;;;4990983;28;20097;-58
2023/03/08 11:48:37;;;;;;;39.42;24.77;;;3.10;99.90;;;;;;4975687;28;20046;-58
2023/03/08 11:51:26;;;;;;;45.15;26.27;;;3.30;99.90;;;;;;4984151;28;20064;-57
2023/03/08 11:54:02;;;;;;;51.30;26.23;;;3.40;99.90;;;;;;4989958;28;20045;-57
2023/03/08 11:56:39;;;;;;;53.65;25.90;;;3.50;99.90;;;;;;4987267;28;20038;-57
2023/03/08 11:59:20;;;;;;;66.82;31.95;;;3.40;99.90;;;;;;4989016;28;20046;-56
2023/03/08 12:02:12;;;;;;;57.83;25.95;;;3.40;99.90;;;;;;4995057;28;20057;-53
2023/03/08 12:05:10;;;;;;;66.32;31.45;;;3.50;99.90;;;;;;4991608;28;20049;-54
2023/03/08 12:07:38;;;;;;;;;;;3.60;99.90;;;;;;4987210;28;20096;-56
2023/03/08 12:10:19;;;;;;;51.63;25.33;;;3.40;99.90;;;;;;4988972;28;19926;-58
2023/03/08 12:13:16;;;;;;;51.35;26.13;;;3.40;99.90;;;;;;4971439;28;20190;-54
2023/03/08 12:15:47;;;;;;;55.20;26.25;;;3.50;99.90;;;;;;4970736;28;20129;-57
2023/03/08 12:18:30;;;;;;;39.10;23.13;;;3.40;99.90;;;;;;4988806;28;20046;-58
2023/03/08 12:21:12;;;;;;;34.05;20.52;;;3.40;99.90;;;;;;4983136;28;20054;-56
2023/03/08 12:23:58;;;;;;;34.28;20.63;;;3.50;99.90;;;;;;4989394;28;20046;-57
2023/03/08 12:26:32;;;;;;;36.47;22.08;;;3.60;99.90;;;;;;4990083;28;20045;-57
2023/03/08 12:29:06;;;;;;;34.83;20.40;;;3.70;99.90;;;;;;4958686;28;20100;-59
2023/03/08 12:31:45;;;;;;;33.90;19.40;;;3.80;99.90;;;;;;4972621;28;20412;-59
2023/03/08 12:34:24;;;;;;;31.05;17.05;;;3.80;99.90;;;;;;4973943;28;20357;-57
2023/03/08 12:36:50;;;;;;;26.02;15.38;;;3.90;99.90;;;;;;4971829;28;20064;-58
2023/03/08 12:39:32;;;;;;;20.38;12.93;;;3.90;99.90;;;;;;4971507;28;20334;-59
2023/03/08 12:42:00;;;;;;;23.48;14.65;;;3.90;99.90;;;;;;4955944;28;20054;-58